sensor_id;sensor_type;location;lat;lon;timestamp;P1;durP1;ratioP1;P2;durP2;ratioP2
1390;SDS011;690;51.454;7.194;2022-09-09T00:00:53;1.40;;;1.10;;
1390;SDS011;690;51.454;7.194;2022-09-09T00:03:26;5.47;;;1.00;;
1390;SDS011;690;51.454;7.194;2022-09-09T00:05:58;2.73;;;0.90;;
1390;SDS011;690;51.454;7.194;2022-09-09T00:08:31;3.70;;;1.10;;
1390;SDS011;690;51.454;7.194;2022-09-09T00:11:23;2.40;;;1.37;;
1390;SDS011;690;51.454;7.194;2022-09-09T00:13:54;2.20;;;1.10;;
1390;SDS011;690;51.454;7.194;2022-09-09T00:16:25;1.57;;;0.70;;
1390;SDS011;690;51.454;7.194;2022-09-09T00:18:57;1.50;;;1.03;;
1390;SDS011;690;51.454;7.194;2022-09-09T00:21:30;3.17;;;1.03;;
1390;SDS011;690;51.454;7.194;2022-09-09T00:24:01;2.03;;;1.20;;
1390;SDS011;690;51.454;7.194;2022-09-09T00:26:42;2.30;;;0.80;;
1390;SDS011;690;51.454;7.194;2022-09-09T00:29:14;2.93;;;1.30;;
1390;SDS011;690;51.454;7.194;2022-09-09T00:31:50;2.87;;;1.10;;
1390;SDS011;690;51.454;7.194;2022-09-09T00:34:24;1.97;;;1.00;;
1390;SDS011;690;51.454;7.194;2022-09-09T00:36:54;1.73;;;1.10;;
1390;SDS011;690;51.454;7.194;2022-09-09T00:39:25;1.10;;;0.73;;
1390;SDS011;690;51.454;7.194;2022-09-09T00:42:02;3.40;;;1.00;;
1390;SDS011;690;51.454;7.194;2022-09-09T00:44:39;2.10;;;1.00;;
1390;SDS011;690;51.454;7.194;2022-09-09T00:47:21;1.73;;;0.90;;
1390;SDS011;690;51.454;7.194;2022-09-09T00:50:03;2.23;;;0.83;;
1390;SDS011;690;51.454;7.194;2022-09-09T00:52:36;2.73;;;0.90;;
1390;SDS011;690;51.454;7.194;2022-09-09T00:55:11;2.20;;;0.90;;
1390;SDS011;690;51.454;7.194;2022-09-09T00:57:45;3.93;;;1.33;;
1390;SDS011;690;51.454;7.194;2022-09-09T01:00:19;1.37;;;0.77;;
1390;SDS011;690;51.454;7.194;2022-09-09T01:02:53;1.37;;;1.00;;
1390;SDS011;690;51.454;7.194;2022-09-09T01:05:33;1.50;;;0.87;;
1390;SDS011;690;51.454;7.194;2022-09-09T01:08:08;1.80;;;1.00;;
1390;SDS011;690;51.454;7.194;2022-09-09T01:10:47;1.87;;;0.87;;
1390;SDS011;690;51.454;7.194;2022-09-09T01:13:22;2.20;;;0.90;;
1390;SDS011;690;51.454;7.194;2022-09-09T01:15:51;2.87;;;0.87;;
1390;SDS011;690;51.454;7.194;2022-09-09T01:18:21;1.13;;;0.83;;
1390;SDS011;690;51.454;7.194;2022-09-09T01:20:54;3.50;;;1.77;;
1390;SDS011;690;51.454;7.194;2022-09-09T01:23:40;6.23;;;2.90;;
1390;SDS011;690;51.454;7.194;2022-09-09T01:26:20;2.93;;;1.50;;
1390;SDS011;690;51.454;7.194;2022-09-09T01:28:52;2.47;;;1.67;;
1390;SDS011;690;51.454;7.194;2022-09-09T01:31:20;2.33;;;1.50;;
1390;SDS011;690;51.454;7.194;2022-09-09T01:33:52;2.30;;;1.77;;
1390;SDS011;690;51.454;7.194;2022-09-09T01:36:21;3.77;;;1.80;;
1390;SDS011;690;51.454;7.194;2022-09-09T01:38:55;2.40;;;2.10;;
1390;SDS011;690;51.454;7.194;2022-09-09T01:41:23;7.03;;;2.20;;
1390;SDS011;690;51.454;7.194;2022-09-09T01:43:50;4.07;;;1.80;;
1390;SDS011;690;51.454;7.194;2022-09-09T01:46:19;4.83;;;2.40;;
1390;SDS011;690;51.454;7.194;2022-09-09T01:48:48;2.83;;;2.63;;
1390;SDS011;690;51.454;7.194;2022-09-09T01:51:17;5.57;;;2.60;;
1390;SDS011;690;51.454;7.194;2022-09-09T01:53:44;2.47;;;2.00;;
1390;SDS011;690;51.454;7.194;2022-09-09T01:56:15;3.83;;;2.87;;
1390;SDS011;690;51.454;7.194;2022-09-09T01:58:57;2.70;;;2.50;;
1390;SDS011;690;51.454;7.194;2022-09-09T02:01:34;4.33;;;2.93;;
1390;SDS011;690;51.454;7.194;2022-09-09T02:04:11;4.43;;;2.87;;
1390;SDS011;690;51.454;7.194;2022-09-09T02:06:52;3.73;;;2.80;;
1390;SDS011;690;51.454;7.194;2022-09-09T02:09:22;5.00;;;3.00;;
1390;SDS011;690;51.454;7.194;2022-09-09T02:11:50;4.67;;;2.83;;
1390;SDS011;690;51.454;7.194;2022-09-09T02:14:27;4.17;;;2.73;;
1390;SDS011;690;51.454;7.194;2022-09-09T02:16:59;3.70;;;2.60;;
1390;SDS011;690;51.454;7.194;2022-09-09T02:19:32;3.23;;;2.67;;
1390;SDS011;690;51.454;7.194;2022-09-09T02:22:03;4.10;;;2.50;;
1390;SDS011;690;51.454;7.194;2022-09-09T02:24:31;3.87;;;2.50;;
1390;SDS011;690;51.454;7.194;2022-09-09T02:27:01;3.53;;;2.13;;
1390;SDS011;690;51.454;7.194;2022-09-09T02:29:35;5.87;;;2.47;;
1390;SDS011;690;51.454;7.194;2022-09-09T02:32:07;3.10;;;2.43;;
1390;SDS011;690;51.454;7.194;2022-09-09T02:34:39;4.97;;;2.70;;
1390;SDS011;690;51.454;7.194;2022-09-09T02:37:09;5.30;;;2.57;;
1390;SDS011;690;51.454;7.194;2022-09-09T02:39:38;4.77;;;2.60;;
1390;SDS011;690;51.454;7.194;2022-09-09T02:42:05;4.63;;;2.60;;
1390;SDS011;690;51.454;7.194;2022-09-09T02:44:34;4.00;;;2.80;;
1390;SDS011;690;51.454;7.194;2022-09-09T02:47:07;4.83;;;2.60;;
1390;SDS011;690;51.454;7.194;2022-09-09T02:49:44;3.80;;;2.53;;
1390;SDS011;690;51.454;7.194;2022-09-09T02:52:25;3.20;;;2.40;;
1390;SDS011;690;51.454;7.194;2022-09-09T02:54:57;5.53;;;2.50;;
1390;SDS011;690;51.454;7.194;2022-09-09T02:57:31;4.10;;;2.95;;
1390;SDS011;690;51.454;7.194;2022-09-09T03:00:00;5.13;;;2.60;;
1390;SDS011;690;51.454;7.194;2022-09-09T03:02:28;5.27;;;2.17;;
1390;SDS011;690;51.454;7.194;2022-09-09T03:04:55;4.67;;;2.47;;
1390;SDS011;690;51.454;7.194;2022-09-09T03:07:23;4.40;;;2.40;;
1390;SDS011;690;51.454;7.194;2022-09-09T03:09:49;3.70;;;2.27;;
1390;SDS011;690;51.454;7.194;2022-09-09T03:12:19;6.00;;;2.43;;
1390;SDS011;690;51.454;7.194;2022-09-09T03:14:46;7.20;;;2.87;;
1390;SDS011;690;51.454;7.194;2022-09-09T03:17:14;5.30;;;2.50;;
1390;SDS011;690;51.454;7.194;2022-09-09T03:19:41;5.83;;;2.33;;
1390;SDS011;690;51.454;7.194;2022-09-09T03:22:09;2.83;;;2.13;;
1390;SDS011;690;51.454;7.194;2022-09-09T03:24:36;4.50;;;2.30;;
1390;SDS011;690;51.454;7.194;2022-09-09T03:27:03;7.07;;;2.20;;
1390;SDS011;690;51.454;7.194;2022-09-09T03:29:31;4.93;;;2.37;;
1390;SDS011;690;51.454;7.194;2022-09-09T03:31:58;2.93;;;2.00;;
1390;SDS011;690;51.454;7.194;2022-09-09T03:34:26;4.20;;;2.17;;
1390;SDS011;690;51.454;7.194;2022-09-09T03:36:53;3.20;;;1.70;;
1390;SDS011;690;51.454;7.194;2022-09-09T03:39:20;2.70;;;2.00;;
1390;SDS011;690;51.454;7.194;2022-09-09T03:41:47;4.57;;;2.25;;
1390;SDS011;690;51.454;7.194;2022-09-09T03:44:14;3.07;;;1.83;;
1390;SDS011;690;51.454;7.194;2022-09-09T03:46:41;4.20;;;2.10;;
1390;SDS011;690;51.454;7.194;2022-09-09T03:49:07;4.67;;;2.23;;
1390;SDS011;690;51.454;7.194;2022-09-09T03:51:36;3.70;;;1.73;;
1390;SDS011;690;51.454;7.194;2022-09-09T03:54:03;2.30;;;2.07;;
1390;SDS011;690;51.454;7.194;2022-09-09T03:56:33;2.80;;;1.67;;
1390;SDS011;690;51.454;7.194;2022-09-09T03:59:00;1.77;;;1.50;;
1390;SDS011;690;51.454;7.194;2022-09-09T04:01:27;4.07;;;1.67;;
1390;SDS011;690;51.454;7.194;2022-09-09T04:03:54;2.72;;;2.00;;
1390;SDS011;690;51.454;7.194;2022-09-09T04:06:23;5.00;;;2.80;;
1390;SDS011;690;51.454;7.194;2022-09-09T04:08:52;4.23;;;1.90;;
1390;SDS011;690;51.454;7.194;2022-09-09T04:11:20;2.88;;;1.55;;
1390;SDS011;690;51.454;7.194;2022-09-09T04:13:47;4.97;;;2.13;;
1390;SDS011;690;51.454;7.194;2022-09-09T04:16:14;3.83;;;2.33;;
1390;SDS011;690;51.454;7.194;2022-09-09T04:18:42;3.30;;;1.70;;
1390;SDS011;690;51.454;7.194;2022-09-09T04:21:09;6.57;;;2.17;;
1390;SDS011;690;51.454;7.194;2022-09-09T04:23:37;3.20;;;1.88;;
1390;SDS011;690;51.454;7.194;2022-09-09T04:26:05;3.57;;;1.70;;
1390;SDS011;690;51.454;7.194;2022-09-09T04:28:33;4.07;;;2.37;;
1390;SDS011;690;51.454;7.194;2022-09-09T04:31:05;4.50;;;1.90;;
1390;SDS011;690;51.454;7.194;2022-09-09T04:33:32;2.27;;;1.60;;
1390;SDS011;690;51.454;7.194;2022-09-09T04:35:59;4.13;;;1.50;;
1390;SDS011;690;51.454;7.194;2022-09-09T04:38:27;7.63;;;2.13;;
1390;SDS011;690;51.454;7.194;2022-09-09T04:40:54;7.13;;;2.20;;
1390;SDS011;690;51.454;7.194;2022-09-09T04:43:22;3.10;;;1.77;;
1390;SDS011;690;51.454;7.194;2022-09-09T04:45:50;3.10;;;2.23;;
1390;SDS011;690;51.454;7.194;2022-09-09T04:48:18;3.58;;;2.10;;
1390;SDS011;690;51.454;7.194;2022-09-09T04:50:53;4.03;;;2.00;;
1390;SDS011;690;51.454;7.194;2022-09-09T04:53:20;2.17;;;1.90;;
1390;SDS011;690;51.454;7.194;2022-09-09T04:55:47;4.43;;;1.77;;
1390;SDS011;690;51.454;7.194;2022-09-09T04:58:14;4.63;;;1.57;;
1390;SDS011;690;51.454;7.194;2022-09-09T05:00:42;3.83;;;2.07;;
1390;SDS011;690;51.454;7.194;2022-09-09T05:03:09;4.93;;;2.00;;
1390;SDS011;690;51.454;7.194;2022-09-09T05:05:37;6.20;;;2.70;;
1390;SDS011;690;51.454;7.194;2022-09-09T05:08:05;4.30;;;1.70;;
1390;SDS011;690;51.454;7.194;2022-09-09T05:10:33;8.13;;;2.37;;
1390;SDS011;690;51.454;7.194;2022-09-09T05:13:02;4.93;;;2.17;;
1390;SDS011;690;51.454;7.194;2022-09-09T05:15:30;6.53;;;2.85;;
1390;SDS011;690;51.454;7.194;2022-09-09T05:17:58;6.00;;;2.57;;
1390;SDS011;690;51.454;7.194;2022-09-09T05:20:27;6.40;;;2.60;;
1390;SDS011;690;51.454;7.194;2022-09-09T05:22:54;4.20;;;2.20;;
1390;SDS011;690;51.454;7.194;2022-09-09T05:25:22;7.40;;;2.40;;
1390;SDS011;690;51.454;7.194;2022-09-09T05:27:51;4.00;;;2.30;;
1390;SDS011;690;51.454;7.194;2022-09-09T05:30:18;4.67;;;2.30;;
1390;SDS011;690;51.454;7.194;2022-09-09T05:32:45;2.75;;;2.03;;
1390;SDS011;690;51.454;7.194;2022-09-09T05:35:15;4.17;;;2.27;;
1390;SDS011;690;51.454;7.194;2022-09-09T05:37:44;3.60;;;3.00;;
1390;SDS011;690;51.454;7.194;2022-09-09T05:40:11;5.27;;;3.00;;
1390;SDS011;690;51.454;7.194;2022-09-09T05:42:38;5.47;;;2.40;;
1390;SDS011;690;51.454;7.194;2022-09-09T05:45:05;8.63;;;2.87;;
1390;SDS011;690;51.454;7.194;2022-09-09T05:47:33;5.40;;;2.40;;
1390;SDS011;690;51.454;7.194;2022-09-09T05:50:02;3.10;;;2.03;;
1390;SDS011;690;51.454;7.194;2022-09-09T05:52:31;4.70;;;2.07;;
1390;SDS011;690;51.454;7.194;2022-09-09T05:54:58;4.30;;;3.30;;
1390;SDS011;690;51.454;7.194;2022-09-09T05:57:25;5.50;;;2.20;;
1390;SDS011;690;51.454;7.194;2022-09-09T05:59:52;7.40;;;2.17;;
1390;SDS011;690;51.454;7.194;2022-09-09T06:02:19;5.10;;;2.40;;
1390;SDS011;690;51.454;7.194;2022-09-09T06:04:46;6.97;;;2.13;;
1390;SDS011;690;51.454;7.194;2022-09-09T06:07:13;5.03;;;2.10;;
1390;SDS011;690;51.454;7.194;2022-09-09T06:09:42;8.20;;;2.50;;
1390;SDS011;690;51.454;7.194;2022-09-09T06:12:08;5.75;;;2.60;;
1390;SDS011;690;51.454;7.194;2022-09-09T06:14:35;4.33;;;2.33;;
1390;SDS011;690;51.454;7.194;2022-09-09T06:17:03;6.03;;;2.40;;
1390;SDS011;690;51.454;7.194;2022-09-09T06:19:30;6.63;;;3.03;;
1390;SDS011;690;51.454;7.194;2022-09-09T06:21:57;7.60;;;3.27;;
1390;SDS011;690;51.454;7.194;2022-09-09T06:24:24;4.53;;;2.00;;
1390;SDS011;690;51.454;7.194;2022-09-09T06:26:52;2.70;;;2.13;;
1390;SDS011;690;51.454;7.194;2022-09-09T06:29:20;3.50;;;1.70;;
1390;SDS011;690;51.454;7.194;2022-09-09T06:31:46;13.90;;;2.60;;
1390;SDS011;690;51.454;7.194;2022-09-09T06:34:13;7.77;;;2.40;;
1390;SDS011;690;51.454;7.194;2022-09-09T06:36:40;9.60;;;3.10;;
1390;SDS011;690;51.454;7.194;2022-09-09T06:39:07;3.53;;;2.10;;
1390;SDS011;690;51.454;7.194;2022-09-09T06:41:36;8.00;;;2.30;;
1390;SDS011;690;51.454;7.194;2022-09-09T06:44:04;4.43;;;2.40;;
1390;SDS011;690;51.454;7.194;2022-09-09T06:46:31;5.20;;;1.90;;
1390;SDS011;690;51.454;7.194;2022-09-09T06:48:58;3.47;;;1.83;;
1390;SDS011;690;51.454;7.194;2022-09-09T06:51:26;4.50;;;1.87;;
1390;SDS011;690;51.454;7.194;2022-09-09T06:53:54;2.35;;;1.60;;
1390;SDS011;690;51.454;7.194;2022-09-09T06:56:22;9.20;;;3.13;;
1390;SDS011;690;51.454;7.194;2022-09-09T06:58:53;5.87;;;2.30;;
1390;SDS011;690;51.454;7.194;2022-09-09T07:01:23;3.70;;;1.77;;
1390;SDS011;690;51.454;7.194;2022-09-09T07:03:51;5.83;;;2.10;;
1390;SDS011;690;51.454;7.194;2022-09-09T07:06:21;3.77;;;2.27;;
1390;SDS011;690;51.454;7.194;2022-09-09T07:08:50;4.93;;;2.00;;
1390;SDS011;690;51.454;7.194;2022-09-09T07:11:18;9.10;;;2.70;;
1390;SDS011;690;51.454;7.194;2022-09-09T07:13:45;7.13;;;2.27;;
1390;SDS011;690;51.454;7.194;2022-09-09T07:16:13;7.20;;;2.17;;
1390;SDS011;690;51.454;7.194;2022-09-09T07:18:43;4.00;;;1.83;;
1390;SDS011;690;51.454;7.194;2022-09-09T07:21:10;7.53;;;1.80;;
1390;SDS011;690;51.454;7.194;2022-09-09T07:23:38;8.60;;;2.47;;
1390;SDS011;690;51.454;7.194;2022-09-09T07:26:09;7.33;;;2.20;;
1390;SDS011;690;51.454;7.194;2022-09-09T07:28:37;6.23;;;1.40;;
1390;SDS011;690;51.454;7.194;2022-09-09T07:31:04;3.50;;;1.70;;
1390;SDS011;690;51.454;7.194;2022-09-09T07:33:33;2.60;;;1.53;;
1390;SDS011;690;51.454;7.194;2022-09-09T07:36:06;5.27;;;1.93;;
1390;SDS011;690;51.454;7.194;2022-09-09T07:38:37;2.75;;;1.60;;
1390;SDS011;690;51.454;7.194;2022-09-09T07:41:06;2.57;;;1.50;;
1390;SDS011;690;51.454;7.194;2022-09-09T07:43:36;7.20;;;2.40;;
1390;SDS011;690;51.454;7.194;2022-09-09T07:46:04;3.03;;;1.50;;
1390;SDS011;690;51.454;7.194;2022-09-09T07:48:32;3.90;;;1.70;;
1390;SDS011;690;51.454;7.194;2022-09-09T07:51:03;5.27;;;1.47;;
1390;SDS011;690;51.454;7.194;2022-09-09T07:53:33;3.13;;;1.60;;
1390;SDS011;690;51.454;7.194;2022-09-09T07:56:05;4.50;;;1.20;;
1390;SDS011;690;51.454;7.194;2022-09-09T07:58:34;6.15;;;1.77;;
1390;SDS011;690;51.454;7.194;2022-09-09T08:01:05;8.43;;;1.90;;
1390;SDS011;690;51.454;7.194;2022-09-09T08:03:33;5.03;;;1.40;;
1390;SDS011;690;51.454;7.194;2022-09-09T08:06:01;6.13;;;1.70;;
1390;SDS011;690;51.454;7.194;2022-09-09T08:08:30;3.70;;;1.77;;
1390;SDS011;690;51.454;7.194;2022-09-09T08:11:04;4.37;;;1.40;;
1390;SDS011;690;51.454;7.194;2022-09-09T08:13:34;2.00;;;1.50;;
1390;SDS011;690;51.454;7.194;2022-09-09T08:16:05;5.43;;;1.40;;
1390;SDS011;690;51.454;7.194;2022-09-09T08:18:33;3.60;;;1.60;;
1390;SDS011;690;51.454;7.194;2022-09-09T08:21:07;6.83;;;1.60;;
1390;SDS011;690;51.454;7.194;2022-09-09T08:23:38;4.97;;;2.00;;
1390;SDS011;690;51.454;7.194;2022-09-09T08:26:06;4.57;;;1.43;;
1390;SDS011;690;51.454;7.194;2022-09-09T08:28:36;5.93;;;2.37;;
1390;SDS011;690;51.454;7.194;2022-09-09T08:31:04;4.43;;;1.88;;
1390;SDS011;690;51.454;7.194;2022-09-09T08:33:36;3.10;;;1.30;;
1390;SDS011;690;51.454;7.194;2022-09-09T08:36:03;5.47;;;1.53;;
1390;SDS011;690;51.454;7.194;2022-09-09T08:38:31;5.70;;;2.00;;
1390;SDS011;690;51.454;7.194;2022-09-09T08:41:03;3.23;;;1.33;;
1390;SDS011;690;51.454;7.194;2022-09-09T08:43:42;4.17;;;1.73;;
1390;SDS011;690;51.454;7.194;2022-09-09T08:46:13;5.87;;;2.13;;
1390;SDS011;690;51.454;7.194;2022-09-09T08:48:52;4.77;;;1.50;;
1390;SDS011;690;51.454;7.194;2022-09-09T08:51:25;3.73;;;1.30;;
1390;SDS011;690;51.454;7.194;2022-09-09T08:53:55;3.70;;;1.50;;
1390;SDS011;690;51.454;7.194;2022-09-09T08:56:27;6.80;;;1.87;;
1390;SDS011;690;51.454;7.194;2022-09-09T08:58:57;2.60;;;1.57;;
1390;SDS011;690;51.454;7.194;2022-09-09T09:01:32;5.33;;;1.73;;
1390;SDS011;690;51.454;7.194;2022-09-09T09:04:07;5.90;;;1.67;;
1390;SDS011;690;51.454;7.194;2022-09-09T09:06:49;6.40;;;1.60;;
1390;SDS011;690;51.454;7.194;2022-09-09T09:09:21;7.30;;;2.07;;
1390;SDS011;690;51.454;7.194;2022-09-09T09:11:54;3.13;;;1.80;;
1390;SDS011;690;51.454;7.194;2022-09-09T09:14:26;2.57;;;1.33;;
1390;SDS011;690;51.454;7.194;2022-09-09T09:16:56;6.63;;;2.20;;
1390;SDS011;690;51.454;7.194;2022-09-09T09:19:25;9.00;;;2.58;;
1390;SDS011;690;51.454;7.194;2022-09-09T09:21:54;3.50;;;2.50;;
1390;SDS011;690;51.454;7.194;2022-09-09T09:24:27;3.95;;;2.08;;
1390;SDS011;690;51.454;7.194;2022-09-09T09:27:07;4.50;;;2.17;;
1390;SDS011;690;51.454;7.194;2022-09-09T09:29:39;2.50;;;1.93;;
1390;SDS011;690;51.454;7.194;2022-09-09T09:32:10;4.10;;;2.23;;
1390;SDS011;690;51.454;7.194;2022-09-09T09:34:41;5.83;;;1.80;;
1390;SDS011;690;51.454;7.194;2022-09-09T09:37:12;3.70;;;2.23;;
1390;SDS011;690;51.454;7.194;2022-09-09T09:39:44;7.40;;;2.53;;
1390;SDS011;690;51.454;7.194;2022-09-09T09:42:14;10.68;;;2.72;;
1390;SDS011;690;51.454;7.194;2022-09-09T09:44:43;4.17;;;1.80;;
1390;SDS011;690;51.454;7.194;2022-09-09T09:47:11;5.30;;;3.40;;
1390;SDS011;690;51.454;7.194;2022-09-09T09:49:39;6.17;;;1.93;;
1390;SDS011;690;51.454;7.194;2022-09-09T09:52:18;5.53;;;2.20;;
1390;SDS011;690;51.454;7.194;2022-09-09T09:54:48;6.53;;;1.67;;
1390;SDS011;690;51.454;7.194;2022-09-09T09:57:18;4.28;;;1.85;;
1390;SDS011;690;51.454;7.194;2022-09-09T09:59:59;5.17;;;1.73;;
1390;SDS011;690;51.454;7.194;2022-09-09T10:02:31;10.30;;;2.00;;
1390;SDS011;690;51.454;7.194;2022-09-09T10:05:04;2.73;;;1.50;;
1390;SDS011;690;51.454;7.194;2022-09-09T10:07:38;2.70;;;1.60;;
1390;SDS011;690;51.454;7.194;2022-09-09T10:10:05;8.17;;;2.17;;
1390;SDS011;690;51.454;7.194;2022-09-09T10:12:39;4.53;;;1.63;;
1390;SDS011;690;51.454;7.194;2022-09-09T10:15:29;4.50;;;1.80;;
1390;SDS011;690;51.454;7.194;2022-09-09T10:18:06;5.40;;;1.57;;
1390;SDS011;690;51.454;7.194;2022-09-09T10:20:43;17.10;;;2.43;;
1390;SDS011;690;51.454;7.194;2022-09-09T10:23:19;7.80;;;2.00;;
1390;SDS011;690;51.454;7.194;2022-09-09T10:26:09;4.87;;;1.43;;
1390;SDS011;690;51.454;7.194;2022-09-09T10:28:56;4.77;;;1.47;;
1390;SDS011;690;51.454;7.194;2022-09-09T10:31:38;6.05;;;1.80;;
1390;SDS011;690;51.454;7.194;2022-09-09T10:34:16;6.57;;;1.77;;
1390;SDS011;690;51.454;7.194;2022-09-09T10:36:52;6.90;;;1.60;;
1390;SDS011;690;51.454;7.194;2022-09-09T10:39:26;2.55;;;1.23;;
1390;SDS011;690;51.454;7.194;2022-09-09T10:42:03;6.17;;;1.40;;
1390;SDS011;690;51.454;7.194;2022-09-09T10:47:36;3.30;;;1.20;;
1390;SDS011;690;51.454;7.194;2022-09-09T10:50:37;4.00;;;1.57;;
1390;SDS011;690;51.454;7.194;2022-09-09T10:53:14;3.50;;;1.30;;
1390;SDS011;690;51.454;7.194;2022-09-09T10:55:48;5.10;;;1.60;;
1390;SDS011;690;51.454;7.194;2022-09-09T10:58:20;4.80;;;1.83;;
1390;SDS011;690;51.454;7.194;2022-09-09T11:00:53;3.00;;;1.60;;
1390;SDS011;690;51.454;7.194;2022-09-09T11:03:27;4.90;;;1.77;;
1390;SDS011;690;51.454;7.194;2022-09-09T11:05:57;5.53;;;1.10;;
1390;SDS011;690;51.454;7.194;2022-09-09T11:08:26;5.70;;;1.60;;
1390;SDS011;690;51.454;7.194;2022-09-09T11:10:57;5.23;;;1.50;;
1390;SDS011;690;51.454;7.194;2022-09-09T11:13:30;2.83;;;1.37;;
1390;SDS011;690;51.454;7.194;2022-09-09T11:16:10;2.63;;;1.30;;
1390;SDS011;690;51.454;7.194;2022-09-09T11:18:45;3.80;;;1.30;;
1390;SDS011;690;51.454;7.194;2022-09-09T11:21:15;11.47;;;1.83;;
1390;SDS011;690;51.454;7.194;2022-09-09T11:23:48;3.73;;;1.33;;
1390;SDS011;690;51.454;7.194;2022-09-09T11:26:21;3.10;;;1.20;;
1390;SDS011;690;51.454;7.194;2022-09-09T11:29:00;2.00;;;1.10;;
1390;SDS011;690;51.454;7.194;2022-09-09T11:31:46;3.90;;;1.10;;
1390;SDS011;690;51.454;7.194;2022-09-09T11:34:33;2.80;;;0.90;;
1390;SDS011;690;51.454;7.194;2022-09-09T11:37:21;5.10;;;1.80;;
1390;SDS011;690;51.454;7.194;2022-09-09T11:40:09;1.53;;;1.00;;
1390;SDS011;690;51.454;7.194;2022-09-09T11:42:43;3.37;;;1.00;;
1390;SDS011;690;51.454;7.194;2022-09-09T11:45:11;2.70;;;1.13;;
1390;SDS011;690;51.454;7.194;2022-09-09T11:47:53;2.40;;;0.90;;
1390;SDS011;690;51.454;7.194;2022-09-09T11:50:28;2.77;;;1.37;;
1390;SDS011;690;51.454;7.194;2022-09-09T11:55:47;2.07;;;1.00;;
1390;SDS011;690;51.454;7.194;2022-09-09T11:58:26;2.00;;;1.00;;
1390;SDS011;690;51.454;7.194;2022-09-09T12:00:57;4.32;;;1.45;;
1390;SDS011;690;51.454;7.194;2022-09-09T12:03:40;5.27;;;1.60;;
1390;SDS011;690;51.454;7.194;2022-09-09T12:06:11;4.23;;;2.20;;
1390;SDS011;690;51.454;7.194;2022-09-09T12:08:42;4.10;;;1.50;;
1390;SDS011;690;51.454;7.194;2022-09-09T12:11:12;3.57;;;1.43;;
1390;SDS011;690;51.454;7.194;2022-09-09T12:13:52;2.90;;;1.57;;
1390;SDS011;690;51.454;7.194;2022-09-09T12:16:31;3.20;;;1.17;;
1390;SDS011;690;51.454;7.194;2022-09-09T12:19:04;5.43;;;1.30;;
1390;SDS011;690;51.454;7.194;2022-09-09T12:21:40;3.37;;;1.53;;
1390;SDS011;690;51.454;7.194;2022-09-09T12:24:14;2.83;;;1.10;;
1390;SDS011;690;51.454;7.194;2022-09-09T12:26:47;3.80;;;1.13;;
1390;SDS011;690;51.454;7.194;2022-09-09T12:29:24;4.60;;;2.05;;
1390;SDS011;690;51.454;7.194;2022-09-09T12:31:59;4.53;;;1.13;;
1390;SDS011;690;51.454;7.194;2022-09-09T12:34:34;2.70;;;1.10;;
1390;SDS011;690;51.454;7.194;2022-09-09T12:37:06;3.77;;;1.40;;
1390;SDS011;690;51.454;7.194;2022-09-09T12:39:41;2.50;;;0.80;;
1390;SDS011;690;51.454;7.194;2022-09-09T12:42:16;2.53;;;1.00;;
1390;SDS011;690;51.454;7.194;2022-09-09T12:44:50;3.10;;;0.83;;
1390;SDS011;690;51.454;7.194;2022-09-09T12:47:18;2.17;;;1.20;;
1390;SDS011;690;51.454;7.194;2022-09-09T12:49:48;5.47;;;1.10;;
1390;SDS011;690;51.454;7.194;2022-09-09T12:52:18;1.37;;;0.97;;
1390;SDS011;690;51.454;7.194;2022-09-09T12:54:51;2.73;;;1.27;;
1390;SDS011;690;51.454;7.194;2022-09-09T12:57:19;2.00;;;0.80;;
1390;SDS011;690;51.454;7.194;2022-09-09T12:59:48;2.43;;;1.10;;
1390;SDS011;690;51.454;7.194;2022-09-09T13:02:19;3.43;;;1.37;;
1390;SDS011;690;51.454;7.194;2022-09-09T13:04:49;1.83;;;1.00;;
1390;SDS011;690;51.454;7.194;2022-09-09T13:07:16;4.57;;;1.30;;
1390;SDS011;690;51.454;7.194;2022-09-09T13:09:44;1.70;;;0.80;;
1390;SDS011;690;51.454;7.194;2022-09-09T13:12:13;3.57;;;1.17;;
1390;SDS011;690;51.454;7.194;2022-09-09T13:14:43;2.17;;;0.90;;
1390;SDS011;690;51.454;7.194;2022-09-09T13:17:18;2.83;;;1.10;;
1390;SDS011;690;51.454;7.194;2022-09-09T13:19:49;6.00;;;1.50;;
1390;SDS011;690;51.454;7.194;2022-09-09T13:22:20;1.55;;;1.10;;
1390;SDS011;690;51.454;7.194;2022-09-09T13:24:58;1.70;;;0.60;;
1390;SDS011;690;51.454;7.194;2022-09-09T13:27:30;4.77;;;1.00;;
1390;SDS011;690;51.454;7.194;2022-09-09T13:29:59;3.65;;;1.58;;
1390;SDS011;690;51.454;7.194;2022-09-09T13:32:27;2.80;;;1.20;;
1390;SDS011;690;51.454;7.194;2022-09-09T13:34:57;2.83;;;1.20;;
1390;SDS011;690;51.454;7.194;2022-09-09T13:37:28;3.47;;;1.60;;
1390;SDS011;690;51.454;7.194;2022-09-09T13:39:59;1.80;;;1.17;;
1390;SDS011;690;51.454;7.194;2022-09-09T13:42:27;2.45;;;2.25;;
1390;SDS011;690;51.454;7.194;2022-09-09T13:44:55;4.85;;;1.38;;
1390;SDS011;690;51.454;7.194;2022-09-09T13:47:27;3.80;;;2.13;;
1390;SDS011;690;51.454;7.194;2022-09-09T13:50:09;3.30;;;1.17;;
1390;SDS011;690;51.454;7.194;2022-09-09T13:52:44;5.37;;;1.30;;
1390;SDS011;690;51.454;7.194;2022-09-09T13:55:12;5.17;;;1.43;;
1390;SDS011;690;51.454;7.194;2022-09-09T13:57:39;6.10;;;1.83;;
1390;SDS011;690;51.454;7.194;2022-09-09T14:00:16;5.93;;;1.50;;
1390;SDS011;690;51.454;7.194;2022-09-09T14:02:43;5.43;;;2.00;;
1390;SDS011;690;51.454;7.194;2022-09-09T14:05:12;3.37;;;1.40;;
1390;SDS011;690;51.454;7.194;2022-09-09T14:07:40;4.33;;;2.10;;
1390;SDS011;690;51.454;7.194;2022-09-09T14:10:07;10.13;;;2.23;;
1390;SDS011;690;51.454;7.194;2022-09-09T14:12:35;3.80;;;1.97;;
1390;SDS011;690;51.454;7.194;2022-09-09T14:15:02;4.77;;;2.13;;
1390;SDS011;690;51.454;7.194;2022-09-09T14:17:29;5.93;;;1.87;;
1390;SDS011;690;51.454;7.194;2022-09-09T14:19:56;5.80;;;2.07;;
1390;SDS011;690;51.454;7.194;2022-09-09T14:22:25;6.03;;;2.40;;
1390;SDS011;690;51.454;7.194;2022-09-09T14:24:53;3.57;;;2.07;;
1390;SDS011;690;51.454;7.194;2022-09-09T14:27:20;4.30;;;1.93;;
1390;SDS011;690;51.454;7.194;2022-09-09T14:29:47;6.40;;;2.50;;
1390;SDS011;690;51.454;7.194;2022-09-09T14:32:14;2.83;;;1.80;;
1390;SDS011;690;51.454;7.194;2022-09-09T14:34:40;6.10;;;2.10;;
1390;SDS011;690;51.454;7.194;2022-09-09T14:37:07;3.23;;;1.47;;
1390;SDS011;690;51.454;7.194;2022-09-09T14:39:36;3.83;;;1.50;;
1390;SDS011;690;51.454;7.194;2022-09-09T14:42:03;4.85;;;1.88;;
1390;SDS011;690;51.454;7.194;2022-09-09T14:44:30;3.28;;;1.45;;
1390;SDS011;690;51.454;7.194;2022-09-09T14:46:57;7.77;;;1.93;;
1390;SDS011;690;51.454;7.194;2022-09-09T14:49:24;4.27;;;1.60;;
1390;SDS011;690;51.454;7.194;2022-09-09T14:51:51;3.40;;;1.90;;
1390;SDS011;690;51.454;7.194;2022-09-09T14:54:18;4.63;;;1.47;;
1390;SDS011;690;51.454;7.194;2022-09-09T14:56:47;5.87;;;1.70;;
1390;SDS011;690;51.454;7.194;2022-09-09T14:59:15;4.80;;;1.97;;
1390;SDS011;690;51.454;7.194;2022-09-09T15:01:41;5.83;;;2.13;;
1390;SDS011;690;51.454;7.194;2022-09-09T15:04:10;2.70;;;1.73;;
1390;SDS011;690;51.454;7.194;2022-09-09T15:06:39;4.90;;;2.50;;
1390;SDS011;690;51.454;7.194;2022-09-09T15:09:09;9.13;;;2.53;;
1390;SDS011;690;51.454;7.194;2022-09-09T15:11:36;2.93;;;1.80;;
1390;SDS011;690;51.454;7.194;2022-09-09T15:14:05;5.18;;;2.40;;
1390;SDS011;690;51.454;7.194;2022-09-09T15:16:33;3.28;;;1.50;;
1390;SDS011;690;51.454;7.194;2022-09-09T15:19:01;3.88;;;1.75;;
1390;SDS011;690;51.454;7.194;2022-09-09T15:21:30;5.57;;;2.67;;
1390;SDS011;690;51.454;7.194;2022-09-09T15:23:58;4.33;;;2.10;;
1390;SDS011;690;51.454;7.194;2022-09-09T15:26:25;4.73;;;2.03;;
1390;SDS011;690;51.454;7.194;2022-09-09T15:28:53;3.90;;;1.67;;
1390;SDS011;690;51.454;7.194;2022-09-09T15:31:22;2.50;;;1.33;;
1390;SDS011;690;51.454;7.194;2022-09-09T15:33:51;1.37;;;1.20;;
1390;SDS011;690;51.454;7.194;2022-09-09T15:36:19;2.67;;;1.33;;
1390;SDS011;690;51.454;7.194;2022-09-09T15:38:47;3.27;;;1.20;;
1390;SDS011;690;51.454;7.194;2022-09-09T15:41:15;2.80;;;1.63;;
1390;SDS011;690;51.454;7.194;2022-09-09T15:43:43;3.40;;;1.30;;
1390;SDS011;690;51.454;7.194;2022-09-09T15:46:28;4.30;;;0.97;;
1390;SDS011;690;51.454;7.194;2022-09-09T15:48:58;1.77;;;1.00;;
1390;SDS011;690;51.454;7.194;2022-09-09T15:51:29;2.10;;;1.10;;
1390;SDS011;690;51.454;7.194;2022-09-09T15:53:56;3.53;;;1.40;;
1390;SDS011;690;51.454;7.194;2022-09-09T15:56:25;2.53;;;1.20;;
1390;SDS011;690;51.454;7.194;2022-09-09T15:58:54;2.90;;;1.30;;